sensor_id;sensor_type;location;lat;lon;timestamp;P1;durP1;ratioP1;P2;durP2;ratioP2
4389;SDS011;2209;48.982;8.406;2023-03-01T00:01:19;13.33;;;11.40;;
4389;SDS011;2209;48.982;8.406;2023-03-01T00:03:42;17.90;;;10.97;;
4389;SDS011;2209;48.982;8.406;2023-03-01T00:06:05;15.00;;;11.80;;
4389;SDS011;2209;48.982;8.406;2023-03-01T00:08:27;14.20;;;11.40;;
4389;SDS011;2209;48.982;8.406;2023-03-01T00:10:59;14.97;;;10.77;;
4389;SDS011;2209;48.982;8.406;2023-03-01T00:13:21;12.43;;;11.00;;
4389;SDS011;2209;48.982;8.406;2023-03-01T00:15:45;16.10;;;11.90;;
4389;SDS011;2209;48.982;8.406;2023-03-01T00:18:07;13.97;;;10.50;;
4389;SDS011;2209;48.982;8.406;2023-03-01T00:20:29;17.37;;;11.37;;
4389;SDS011;2209;48.982;8.406;2023-03-01T00:22:51;13.33;;;11.03;;
4389;SDS011;2209;48.982;8.406;2023-03-01T00:25:13;17.23;;;11.83;;
4389;SDS011;2209;48.982;8.406;2023-03-01T00:27:36;17.10;;;12.40;;
4389;SDS011;2209;48.982;8.406;2023-03-01T00:29:58;14.03;;;11.13;;
4389;SDS011;2209;48.982;8.406;2023-03-01T00:32:21;17.37;;;11.83;;
4389;SDS011;2209;48.982;8.406;2023-03-01T00:34:43;14.70;;;11.20;;
4389;SDS011;2209;48.982;8.406;2023-03-01T00:37:14;16.97;;;11.93;;
4389;SDS011;2209;48.982;8.406;2023-03-01T00:39:36;13.70;;;11.90;;
4389;SDS011;2209;48.982;8.406;2023-03-01T00:41:58;14.20;;;11.50;;
4389;SDS011;2209;48.982;8.406;2023-03-01T00:44:20;14.43;;;11.03;;
4389;SDS011;2209;48.982;8.406;2023-03-01T00:46:42;17.90;;;12.17;;
4389;SDS011;2209;48.982;8.406;2023-03-01T00:49:06;13.97;;;10.80;;
4389;SDS011;2209;48.982;8.406;2023-03-01T00:51:28;14.07;;;11.80;;
4389;SDS011;2209;48.982;8.406;2023-03-01T00:53:51;15.53;;;11.00;;
4389;SDS011;2209;48.982;8.406;2023-03-01T00:56:14;14.47;;;11.70;;
4389;SDS011;2209;48.982;8.406;2023-03-01T00:58:36;16.60;;;12.40;;
4389;SDS011;2209;48.982;8.406;2023-03-01T01:00:59;15.03;;;11.63;;
4389;SDS011;2209;48.982;8.406;2023-03-01T01:03:21;14.30;;;11.60;;
4389;SDS011;2209;48.982;8.406;2023-03-01T01:05:46;13.23;;;11.50;;
4389;SDS011;2209;48.982;8.406;2023-03-01T01:08:08;13.50;;;11.33;;
4389;SDS011;2209;48.982;8.406;2023-03-01T01:10:30;15.23;;;11.67;;
4389;SDS011;2209;48.982;8.406;2023-03-01T01:12:54;14.73;;;12.00;;
4389;SDS011;2209;48.982;8.406;2023-03-01T01:15:16;14.73;;;11.60;;
4389;SDS011;2209;48.982;8.406;2023-03-01T01:17:38;15.93;;;12.00;;
4389;SDS011;2209;48.982;8.406;2023-03-01T01:20:00;16.27;;;10.90;;
4389;SDS011;2209;48.982;8.406;2023-03-01T01:22:24;13.00;;;11.13;;
4389;SDS011;2209;48.982;8.406;2023-03-01T01:24:46;15.90;;;11.67;;
4389;SDS011;2209;48.982;8.406;2023-03-01T01:27:08;13.93;;;11.80;;
4389;SDS011;2209;48.982;8.406;2023-03-01T01:29:30;15.90;;;11.60;;
4389;SDS011;2209;48.982;8.406;2023-03-01T01:31:53;14.50;;;10.10;;
4389;SDS011;2209;48.982;8.406;2023-03-01T01:34:15;16.50;;;10.60;;
4389;SDS011;2209;48.982;8.406;2023-03-01T01:36:39;13.10;;;11.67;;
4389;SDS011;2209;48.982;8.406;2023-03-01T01:39:02;16.90;;;11.93;;
4389;SDS011;2209;48.982;8.406;2023-03-01T01:41:25;16.67;;;11.40;;
4389;SDS011;2209;48.982;8.406;2023-03-01T01:44:08;16.07;;;11.63;;
4389;SDS011;2209;48.982;8.406;2023-03-01T01:46:35;13.27;;;11.83;;
4389;SDS011;2209;48.982;8.406;2023-03-01T01:49:00;15.60;;;11.00;;
4389;SDS011;2209;48.982;8.406;2023-03-01T01:51:27;16.43;;;11.47;;
4389;SDS011;2209;48.982;8.406;2023-03-01T01:53:59;16.20;;;12.67;;
4389;SDS011;2209;48.982;8.406;2023-03-01T01:56:24;15.60;;;12.77;;
4389;SDS011;2209;48.982;8.406;2023-03-01T01:58:47;16.23;;;12.37;;
4389;SDS011;2209;48.982;8.406;2023-03-01T02:01:11;15.00;;;11.70;;
4389;SDS011;2209;48.982;8.406;2023-03-01T02:03:33;17.67;;;13.20;;
4389;SDS011;2209;48.982;8.406;2023-03-01T02:06:03;16.70;;;13.10;;
4389;SDS011;2209;48.982;8.406;2023-03-01T02:08:28;11.40;;;10.30;;
4389;SDS011;2209;48.982;8.406;2023-03-01T02:10:53;16.20;;;11.60;;
4389;SDS011;2209;48.982;8.406;2023-03-01T02:13:18;16.23;;;12.43;;
4389;SDS011;2209;48.982;8.406;2023-03-01T02:15:40;15.23;;;12.67;;
4389;SDS011;2209;48.982;8.406;2023-03-01T02:18:04;16.13;;;12.80;;
4389;SDS011;2209;48.982;8.406;2023-03-01T02:20:29;12.90;;;11.30;;
4389;SDS011;2209;48.982;8.406;2023-03-01T02:23:02;13.80;;;11.70;;
4389;SDS011;2209;48.982;8.406;2023-03-01T02:25:37;16.07;;;11.77;;
4389;SDS011;2209;48.982;8.406;2023-03-01T02:28:08;16.63;;;13.23;;
4389;SDS011;2209;48.982;8.406;2023-03-01T02:30:34;15.93;;;12.70;;
4389;SDS011;2209;48.982;8.406;2023-03-01T02:32:57;17.00;;;13.43;;
4389;SDS011;2209;48.982;8.406;2023-03-01T02:35:22;18.37;;;13.67;;
4389;SDS011;2209;48.982;8.406;2023-03-01T02:37:45;16.63;;;12.87;;
4389;SDS011;2209;48.982;8.406;2023-03-01T02:40:08;20.73;;;13.20;;
4389;SDS011;2209;48.982;8.406;2023-03-01T02:42:36;18.60;;;13.23;;
4389;SDS011;2209;48.982;8.406;2023-03-01T02:45:07;22.10;;;13.83;;
4389;SDS011;2209;48.982;8.406;2023-03-01T02:47:32;17.07;;;12.80;;
4389;SDS011;2209;48.982;8.406;2023-03-01T02:49:54;16.53;;;12.37;;
4389;SDS011;2209;48.982;8.406;2023-03-01T02:52:20;16.40;;;12.93;;
4389;SDS011;2209;48.982;8.406;2023-03-01T02:55:02;22.50;;;13.43;;
4389;SDS011;2209;48.982;8.406;2023-03-01T02:57:28;16.00;;;13.00;;
4389;SDS011;2209;48.982;8.406;2023-03-01T02:59:51;16.07;;;12.60;;
4389;SDS011;2209;48.982;8.406;2023-03-01T03:02:19;19.20;;;12.60;;
4389;SDS011;2209;48.982;8.406;2023-03-01T03:04:57;17.90;;;13.43;;
4389;SDS011;2209;48.982;8.406;2023-03-01T03:07:19;17.10;;;12.90;;
4389;SDS011;2209;48.982;8.406;2023-03-01T03:09:41;15.60;;;12.90;;
4389;SDS011;2209;48.982;8.406;2023-03-01T03:12:04;16.43;;;14.00;;
4389;SDS011;2209;48.982;8.406;2023-03-01T03:14:26;15.90;;;13.27;;
4389;SDS011;2209;48.982;8.406;2023-03-01T03:16:49;17.10;;;13.10;;
4389;SDS011;2209;48.982;8.406;2023-03-01T03:19:11;16.67;;;13.63;;
4389;SDS011;2209;48.982;8.406;2023-03-01T03:21:35;17.50;;;13.30;;
4389;SDS011;2209;48.982;8.406;2023-03-01T03:23:57;17.80;;;13.53;;
4389;SDS011;2209;48.982;8.406;2023-03-01T03:26:19;18.00;;;13.50;;
4389;SDS011;2209;48.982;8.406;2023-03-01T03:28:41;14.03;;;12.57;;
4389;SDS011;2209;48.982;8.406;2023-03-01T03:31:05;18.33;;;13.37;;
4389;SDS011;2209;48.982;8.406;2023-03-01T03:33:27;17.60;;;13.80;;
4389;SDS011;2209;48.982;8.406;2023-03-01T03:35:49;18.43;;;13.97;;
4389;SDS011;2209;48.982;8.406;2023-03-01T03:38:13;17.30;;;13.60;;
4389;SDS011;2209;48.982;8.406;2023-03-01T03:40:37;16.83;;;14.00;;
4389;SDS011;2209;48.982;8.406;2023-03-01T03:43:01;19.30;;;13.17;;
4389;SDS011;2209;48.982;8.406;2023-03-01T03:45:23;17.00;;;12.50;;
4389;SDS011;2209;48.982;8.406;2023-03-01T03:47:45;17.13;;;13.43;;
4389;SDS011;2209;48.982;8.406;2023-03-01T03:50:08;19.73;;;14.17;;
4389;SDS011;2209;48.982;8.406;2023-03-01T03:52:31;19.27;;;14.03;;
4389;SDS011;2209;48.982;8.406;2023-03-01T03:54:54;16.53;;;14.07;;
4389;SDS011;2209;48.982;8.406;2023-03-01T03:57:16;16.47;;;13.47;;
4389;SDS011;2209;48.982;8.406;2023-03-01T03:59:38;16.67;;;13.37;;
4389;SDS011;2209;48.982;8.406;2023-03-01T04:02:00;18.07;;;14.13;;
4389;SDS011;2209;48.982;8.406;2023-03-01T04:04:22;17.70;;;13.90;;
4389;SDS011;2209;48.982;8.406;2023-03-01T04:06:44;17.13;;;13.80;;
4389;SDS011;2209;48.982;8.406;2023-03-01T04:09:08;21.67;;;14.07;;
4389;SDS011;2209;48.982;8.406;2023-03-01T04:11:32;21.93;;;14.93;;
4389;SDS011;2209;48.982;8.406;2023-03-01T04:13:56;16.03;;;13.37;;
4389;SDS011;2209;48.982;8.406;2023-03-01T04:16:19;19.23;;;14.20;;
4389;SDS011;2209;48.982;8.406;2023-03-01T04:18:41;17.50;;;13.33;;
4389;SDS011;2209;48.982;8.406;2023-03-01T04:21:03;19.80;;;13.67;;
4389;SDS011;2209;48.982;8.406;2023-03-01T04:23:26;17.23;;;13.80;;
4389;SDS011;2209;48.982;8.406;2023-03-01T04:25:49;16.30;;;13.23;;
4389;SDS011;2209;48.982;8.406;2023-03-01T04:28:16;17.90;;;13.77;;
4389;SDS011;2209;48.982;8.406;2023-03-01T04:30:38;20.73;;;14.27;;
4389;SDS011;2209;48.982;8.406;2023-03-01T04:33:02;20.83;;;14.60;;
4389;SDS011;2209;48.982;8.406;2023-03-01T04:35:25;19.63;;;14.67;;
4389;SDS011;2209;48.982;8.406;2023-03-01T04:37:48;19.23;;;14.40;;
4389;SDS011;2209;48.982;8.406;2023-03-01T04:40:11;19.60;;;14.60;;
4389;SDS011;2209;48.982;8.406;2023-03-01T04:42:36;24.30;;;15.53;;
4389;SDS011;2209;48.982;8.406;2023-03-01T04:45:00;17.43;;;13.63;;
4389;SDS011;2209;48.982;8.406;2023-03-01T04:47:22;21.13;;;14.37;;
4389;SDS011;2209;48.982;8.406;2023-03-01T04:49:44;21.60;;;14.77;;
4389;SDS011;2209;48.982;8.406;2023-03-01T04:52:06;20.60;;;14.03;;
4389;SDS011;2209;48.982;8.406;2023-03-01T04:54:28;19.83;;;14.40;;
4389;SDS011;2209;48.982;8.406;2023-03-01T04:56:50;19.23;;;14.17;;
4389;SDS011;2209;48.982;8.406;2023-03-01T04:59:12;24.70;;;15.13;;
4389;SDS011;2209;48.982;8.406;2023-03-01T05:01:35;21.03;;;14.30;;
4389;SDS011;2209;48.982;8.406;2023-03-01T05:03:58;22.23;;;14.33;;
4389;SDS011;2209;48.982;8.406;2023-03-01T05:06:23;18.10;;;14.70;;
4389;SDS011;2209;48.982;8.406;2023-03-01T05:08:45;25.10;;;16.93;;
4389;SDS011;2209;48.982;8.406;2023-03-01T05:11:07;20.50;;;14.60;;
4389;SDS011;2209;48.982;8.406;2023-03-01T05:13:30;22.83;;;15.83;;
4389;SDS011;2209;48.982;8.406;2023-03-01T05:15:54;22.73;;;16.70;;
4389;SDS011;2209;48.982;8.406;2023-03-01T05:18:18;20.03;;;15.53;;
4389;SDS011;2209;48.982;8.406;2023-03-01T05:20:41;21.03;;;15.27;;
4389;SDS011;2209;48.982;8.406;2023-03-01T05:23:03;19.13;;;14.70;;
4389;SDS011;2209;48.982;8.406;2023-03-01T05:25:26;22.40;;;15.40;;
4389;SDS011;2209;48.982;8.406;2023-03-01T05:27:53;21.00;;;14.67;;
4389;SDS011;2209;48.982;8.406;2023-03-01T05:30:15;22.40;;;15.00;;
4389;SDS011;2209;48.982;8.406;2023-03-01T05:32:39;21.43;;;14.83;;
4389;SDS011;2209;48.982;8.406;2023-03-01T05:35:05;21.17;;;15.13;;
4389;SDS011;2209;48.982;8.406;2023-03-01T05:37:27;26.40;;;16.63;;
4389;SDS011;2209;48.982;8.406;2023-03-01T05:39:50;20.93;;;16.10;;
4389;SDS011;2209;48.982;8.406;2023-03-01T05:42:12;18.80;;;14.50;;
4389;SDS011;2209;48.982;8.406;2023-03-01T05:44:34;17.50;;;15.00;;
4389;SDS011;2209;48.982;8.406;2023-03-01T05:46:56;22.70;;;16.50;;
4389;SDS011;2209;48.982;8.406;2023-03-01T05:49:25;21.67;;;15.97;;
4389;SDS011;2209;48.982;8.406;2023-03-01T05:51:49;21.80;;;16.30;;
4389;SDS011;2209;48.982;8.406;2023-03-01T05:54:12;19.87;;;15.67;;
4389;SDS011;2209;48.982;8.406;2023-03-01T05:56:34;23.50;;;15.83;;
4389;SDS011;2209;48.982;8.406;2023-03-01T05:58:57;22.47;;;14.57;;
4389;SDS011;2209;48.982;8.406;2023-03-01T06:01:19;18.50;;;13.87;;
4389;SDS011;2209;48.982;8.406;2023-03-01T06:03:42;21.33;;;15.70;;
4389;SDS011;2209;48.982;8.406;2023-03-01T06:06:04;20.90;;;15.23;;
4389;SDS011;2209;48.982;8.406;2023-03-01T06:08:28;24.33;;;16.23;;
4389;SDS011;2209;48.982;8.406;2023-03-01T06:10:50;20.70;;;16.40;;
4389;SDS011;2209;48.982;8.406;2023-03-01T06:13:12;20.20;;;13.90;;
4389;SDS011;2209;48.982;8.406;2023-03-01T06:15:34;26.20;;;16.27;;
4389;SDS011;2209;48.982;8.406;2023-03-01T06:17:56;23.90;;;15.40;;
4389;SDS011;2209;48.982;8.406;2023-03-01T06:20:20;24.90;;;16.80;;
4389;SDS011;2209;48.982;8.406;2023-03-01T06:22:49;23.63;;;16.10;;
4389;SDS011;2209;48.982;8.406;2023-03-01T06:25:14;25.00;;;16.47;;
4389;SDS011;2209;48.982;8.406;2023-03-01T06:27:40;22.13;;;15.00;;
4389;SDS011;2209;48.982;8.406;2023-03-01T06:30:03;22.47;;;16.50;;
4389;SDS011;2209;48.982;8.406;2023-03-01T06:32:27;22.20;;;15.57;;
4389;SDS011;2209;48.982;8.406;2023-03-01T06:34:52;22.40;;;14.90;;
4389;SDS011;2209;48.982;8.406;2023-03-01T06:37:20;23.67;;;16.37;;
4389;SDS011;2209;48.982;8.406;2023-03-01T06:39:42;19.53;;;15.43;;
4389;SDS011;2209;48.982;8.406;2023-03-01T06:42:05;23.87;;;16.13;;
4389;SDS011;2209;48.982;8.406;2023-03-01T06:44:30;22.97;;;16.57;;
4389;SDS011;2209;48.982;8.406;2023-03-01T06:46:52;24.87;;;16.93;;
4389;SDS011;2209;48.982;8.406;2023-03-01T06:49:14;23.00;;;16.30;;
4389;SDS011;2209;48.982;8.406;2023-03-01T06:51:38;20.40;;;15.30;;
4389;SDS011;2209;48.982;8.406;2023-03-01T06:54:00;25.27;;;16.90;;
4389;SDS011;2209;48.982;8.406;2023-03-01T06:56:22;23.50;;;16.90;;
4389;SDS011;2209;48.982;8.406;2023-03-01T06:58:46;22.27;;;15.33;;
4389;SDS011;2209;48.982;8.406;2023-03-01T07:01:08;21.97;;;16.23;;
4389;SDS011;2209;48.982;8.406;2023-03-01T07:03:30;19.40;;;15.97;;
4389;SDS011;2209;48.982;8.406;2023-03-01T07:05:52;23.43;;;16.40;;
4389;SDS011;2209;48.982;8.406;2023-03-01T07:08:14;26.30;;;16.50;;
4389;SDS011;2209;48.982;8.406;2023-03-01T07:10:36;21.30;;;16.07;;
4389;SDS011;2209;48.982;8.406;2023-03-01T07:13:01;25.20;;;18.67;;
4389;SDS011;2209;48.982;8.406;2023-03-01T07:15:25;21.73;;;16.07;;
4389;SDS011;2209;48.982;8.406;2023-03-01T07:17:48;24.53;;;16.77;;
4389;SDS011;2209;48.982;8.406;2023-03-01T07:20:11;24.50;;;16.17;;
4389;SDS011;2209;48.982;8.406;2023-03-01T07:22:33;23.87;;;16.07;;
4389;SDS011;2209;48.982;8.406;2023-03-01T07:24:55;26.30;;;16.60;;
4389;SDS011;2209;48.982;8.406;2023-03-01T07:27:17;22.30;;;16.67;;
4389;SDS011;2209;48.982;8.406;2023-03-01T07:29:39;22.00;;;16.93;;
4389;SDS011;2209;48.982;8.406;2023-03-01T07:32:03;20.83;;;16.20;;
4389;SDS011;2209;48.982;8.406;2023-03-01T07:34:26;21.80;;;15.27;;
4389;SDS011;2209;48.982;8.406;2023-03-01T07:36:48;25.07;;;17.47;;
4389;SDS011;2209;48.982;8.406;2023-03-01T07:39:10;26.50;;;15.97;;
4389;SDS011;2209;48.982;8.406;2023-03-01T07:41:33;23.83;;;17.23;;
4389;SDS011;2209;48.982;8.406;2023-03-01T07:43:55;29.63;;;16.70;;
4389;SDS011;2209;48.982;8.406;2023-03-01T07:46:17;28.23;;;17.97;;
4389;SDS011;2209;48.982;8.406;2023-03-01T07:48:40;23.70;;;16.20;;
4389;SDS011;2209;48.982;8.406;2023-03-01T07:51:03;30.60;;;18.50;;
4389;SDS011;2209;48.982;8.406;2023-03-01T07:53:26;26.30;;;16.13;;
4389;SDS011;2209;48.982;8.406;2023-03-01T07:55:49;30.47;;;18.13;;
4389;SDS011;2209;48.982;8.406;2023-03-01T07:58:21;24.80;;;17.50;;
4389;SDS011;2209;48.982;8.406;2023-03-01T08:00:45;23.57;;;16.43;;
4389;SDS011;2209;48.982;8.406;2023-03-01T08:03:07;25.83;;;17.47;;
4389;SDS011;2209;48.982;8.406;2023-03-01T08:05:31;25.00;;;17.00;;
4389;SDS011;2209;48.982;8.406;2023-03-01T08:07:54;27.20;;;17.60;;
4389;SDS011;2209;48.982;8.406;2023-03-01T08:10:16;24.13;;;15.60;;
4389;SDS011;2209;48.982;8.406;2023-03-01T08:12:38;25.87;;;16.87;;
4389;SDS011;2209;48.982;8.406;2023-03-01T08:15:00;28.87;;;18.60;;
4389;SDS011;2209;48.982;8.406;2023-03-01T08:17:22;22.50;;;17.20;;
4389;SDS011;2209;48.982;8.406;2023-03-01T08:19:45;24.53;;;19.03;;
4389;SDS011;2209;48.982;8.406;2023-03-01T08:22:08;24.33;;;16.20;;
4389;SDS011;2209;48.982;8.406;2023-03-01T08:24:30;25.80;;;17.63;;
4389;SDS011;2209;48.982;8.406;2023-03-01T08:26:52;25.67;;;19.10;;
4389;SDS011;2209;48.982;8.406;2023-03-01T08:29:15;29.20;;;18.37;;
4389;SDS011;2209;48.982;8.406;2023-03-01T08:31:37;26.43;;;18.37;;
4389;SDS011;2209;48.982;8.406;2023-03-01T08:34:01;25.63;;;17.13;;
4389;SDS011;2209;48.982;8.406;2023-03-01T08:36:26;24.63;;;17.07;;
4389;SDS011;2209;48.982;8.406;2023-03-01T08:38:50;27.40;;;19.00;;
4389;SDS011;2209;48.982;8.406;2023-03-01T08:41:12;28.63;;;18.90;;
4389;SDS011;2209;48.982;8.406;2023-03-01T08:43:35;22.50;;;17.00;;
4389;SDS011;2209;48.982;8.406;2023-03-01T08:45:57;24.63;;;17.30;;
4389;SDS011;2209;48.982;8.406;2023-03-01T08:48:19;21.63;;;17.53;;
4389;SDS011;2209;48.982;8.406;2023-03-01T08:50:41;23.70;;;18.33;;
4389;SDS011;2209;48.982;8.406;2023-03-01T08:53:04;29.23;;;18.33;;
4389;SDS011;2209;48.982;8.406;2023-03-01T08:55:27;26.27;;;19.50;;
4389;SDS011;2209;48.982;8.406;2023-03-01T08:57:49;24.97;;;17.33;;
4389;SDS011;2209;48.982;8.406;2023-03-01T09:00:11;25.80;;;18.33;;
4389;SDS011;2209;48.982;8.406;2023-03-01T09:02:35;28.23;;;19.00;;
4389;SDS011;2209;48.982;8.406;2023-03-01T09:04:57;24.60;;;17.50;;
4389;SDS011;2209;48.982;8.406;2023-03-01T09:07:19;28.90;;;19.00;;
4389;SDS011;2209;48.982;8.406;2023-03-01T09:09:41;25.20;;;18.37;;
4389;SDS011;2209;48.982;8.406;2023-03-01T09:12:05;31.50;;;19.87;;
4389;SDS011;2209;48.982;8.406;2023-03-01T09:14:27;27.57;;;19.27;;
4389;SDS011;2209;48.982;8.406;2023-03-01T09:16:49;25.30;;;18.50;;
4389;SDS011;2209;48.982;8.406;2023-03-01T09:19:11;29.20;;;19.37;;
4389;SDS011;2209;48.982;8.406;2023-03-01T09:21:33;24.00;;;17.37;;
4389;SDS011;2209;48.982;8.406;2023-03-01T09:23:55;29.93;;;19.50;;
4389;SDS011;2209;48.982;8.406;2023-03-01T09:26:19;28.63;;;18.47;;
4389;SDS011;2209;48.982;8.406;2023-03-01T09:28:43;27.30;;;19.10;;
4389;SDS011;2209;48.982;8.406;2023-03-01T09:31:06;27.23;;;17.27;;
4389;SDS011;2209;48.982;8.406;2023-03-01T09:33:28;26.60;;;18.23;;
4389;SDS011;2209;48.982;8.406;2023-03-01T09:35:55;28.57;;;19.77;;
4389;SDS011;2209;48.982;8.406;2023-03-01T09:38:18;30.63;;;19.63;;
4389;SDS011;2209;48.982;8.406;2023-03-01T09:40:42;26.63;;;17.67;;
4389;SDS011;2209;48.982;8.406;2023-03-01T09:43:07;29.13;;;19.00;;
4389;SDS011;2209;48.982;8.406;2023-03-01T09:45:37;25.03;;;17.53;;
4389;SDS011;2209;48.982;8.406;2023-03-01T09:48:03;29.63;;;19.80;;
4389;SDS011;2209;48.982;8.406;2023-03-01T09:50:28;25.97;;;19.33;;
4389;SDS011;2209;48.982;8.406;2023-03-01T09:52:58;26.90;;;18.00;;
4389;SDS011;2209;48.982;8.406;2023-03-01T09:55:25;30.00;;;19.70;;
4389;SDS011;2209;48.982;8.406;2023-03-01T09:57:52;31.20;;;18.60;;
4389;SDS011;2209;48.982;8.406;2023-03-01T10:00:19;28.47;;;19.33;;
4389;SDS011;2209;48.982;8.406;2023-03-01T10:02:57;26.73;;;18.53;;
4389;SDS011;2209;48.982;8.406;2023-03-01T10:05:30;26.33;;;18.00;;
4389;SDS011;2209;48.982;8.406;2023-03-01T10:08:01;24.40;;;17.00;;
4389;SDS011;2209;48.982;8.406;2023-03-01T10:10:43;25.60;;;18.03;;
4389;SDS011;2209;48.982;8.406;2023-03-01T10:13:09;25.60;;;18.33;;
4389;SDS011;2209;48.982;8.406;2023-03-01T10:15:39;30.57;;;20.00;;
4389;SDS011;2209;48.982;8.406;2023-03-01T10:18:09;25.80;;;18.70;;
4389;SDS011;2209;48.982;8.406;2023-03-01T10:20:40;28.67;;;19.10;;
4389;SDS011;2209;48.982;8.406;2023-03-01T10:23:07;26.27;;;18.20;;
4389;SDS011;2209;48.982;8.406;2023-03-01T10:25:36;26.33;;;18.70;;
4389;SDS011;2209;48.982;8.406;2023-03-01T10:28:10;26.47;;;19.20;;
4389;SDS011;2209;48.982;8.406;2023-03-01T10:30:39;28.97;;;19.10;;
4389;SDS011;2209;48.982;8.406;2023-03-01T10:33:04;31.83;;;19.07;;
4389;SDS011;2209;48.982;8.406;2023-03-01T10:35:37;30.03;;;19.37;;
4389;SDS011;2209;48.982;8.406;2023-03-01T10:38:05;30.60;;;19.27;;
4389;SDS011;2209;48.982;8.406;2023-03-01T10:40:28;24.40;;;18.60;;
4389;SDS011;2209;48.982;8.406;2023-03-01T10:42:50;27.47;;;20.23;;
4389;SDS011;2209;48.982;8.406;2023-03-01T10:45:17;24.47;;;16.40;;
4389;SDS011;2209;48.982;8.406;2023-03-01T10:47:57;27.00;;;17.23;;
4389;SDS011;2209;48.982;8.406;2023-03-01T10:50:26;31.13;;;19.90;;
4389;SDS011;2209;48.982;8.406;2023-03-01T10:52:55;28.37;;;17.00;;
4389;SDS011;2209;48.982;8.406;2023-03-01T10:55:23;27.47;;;19.60;;
4389;SDS011;2209;48.982;8.406;2023-03-01T10:57:48;28.27;;;18.83;;
4389;SDS011;2209;48.982;8.406;2023-03-01T11:00:18;26.50;;;17.93;;
4389;SDS011;2209;48.982;8.406;2023-03-01T11:02:42;27.73;;;20.20;;
4389;SDS011;2209;48.982;8.406;2023-03-01T11:05:13;28.07;;;19.60;;
4389;SDS011;2209;48.982;8.406;2023-03-01T11:07:48;28.23;;;19.67;;
4389;SDS011;2209;48.982;8.406;2023-03-01T11:10:12;25.87;;;18.73;;
4389;SDS011;2209;48.982;8.406;2023-03-01T11:12:38;33.00;;;19.80;;
4389;SDS011;2209;48.982;8.406;2023-03-01T11:15:00;29.97;;;20.00;;
4389;SDS011;2209;48.982;8.406;2023-03-01T11:17:23;29.93;;;19.03;;
4389;SDS011;2209;48.982;8.406;2023-03-01T11:20:04;30.47;;;19.43;;
4389;SDS011;2209;48.982;8.406;2023-03-01T11:22:47;27.90;;;18.13;;
4389;SDS011;2209;48.982;8.406;2023-03-01T11:25:12;28.40;;;20.70;;
4389;SDS011;2209;48.982;8.406;2023-03-01T11:27:36;29.57;;;19.00;;
4389;SDS011;2209;48.982;8.406;2023-03-01T11:30:03;26.83;;;19.10;;
4389;SDS011;2209;48.982;8.406;2023-03-01T11:32:31;26.60;;;19.57;;
4389;SDS011;2209;48.982;8.406;2023-03-01T11:34:57;29.67;;;19.40;;
4389;SDS011;2209;48.982;8.406;2023-03-01T11:37:30;24.77;;;17.40;;
4389;SDS011;2209;48.982;8.406;2023-03-01T11:40:01;26.63;;;19.47;;
4389;SDS011;2209;48.982;8.406;2023-03-01T11:42:37;31.17;;;19.70;;
4389;SDS011;2209;48.982;8.406;2023-03-01T11:45:10;26.20;;;19.27;;
4389;SDS011;2209;48.982;8.406;2023-03-01T11:47:43;29.13;;;17.83;;
4389;SDS011;2209;48.982;8.406;2023-03-01T11:50:19;27.03;;;18.20;;
4389;SDS011;2209;48.982;8.406;2023-03-01T11:52:54;32.50;;;20.67;;
4389;SDS011;2209;48.982;8.406;2023-03-01T11:55:35;29.47;;;19.70;;
4389;SDS011;2209;48.982;8.406;2023-03-01T11:58:14;29.50;;;19.53;;
4389;SDS011;2209;48.982;8.406;2023-03-01T12:01:02;28.07;;;19.20;;
4389;SDS011;2209;48.982;8.406;2023-03-01T12:03:34;29.43;;;18.57;;
4389;SDS011;2209;48.982;8.406;2023-03-01T12:06:12;28.00;;;19.50;;
4389;SDS011;2209;48.982;8.406;2023-03-01T12:08:57;29.37;;;20.20;;
4389;SDS011;2209;48.982;8.406;2023-03-01T12:11:35;24.90;;;18.17;;
4389;SDS011;2209;48.982;8.406;2023-03-01T12:16:59;23.60;;;18.50;;
4389;SDS011;2209;48.982;8.406;2023-03-01T12:19:45;26.33;;;18.53;;
4389;SDS011;2209;48.982;8.406;2023-03-01T12:22:21;29.13;;;20.23;;
4389;SDS011;2209;48.982;8.406;2023-03-01T12:25:10;26.40;;;19.17;;
4389;SDS011;2209;48.982;8.406;2023-03-01T12:30:35;25.47;;;18.40;;
4389;SDS011;2209;48.982;8.406;2023-03-01T12:33:12;25.30;;;18.13;;
4389;SDS011;2209;48.982;8.406;2023-03-01T12:35:54;25.07;;;18.47;;
4389;SDS011;2209;48.982;8.406;2023-03-01T12:38:40;23.73;;;19.03;;
4389;SDS011;2209;48.982;8.406;2023-03-01T12:41:21;28.27;;;19.67;;
4389;SDS011;2209;48.982;8.406;2023-03-01T12:44:10;33.00;;;20.77;;
4389;SDS011;2209;48.982;8.406;2023-03-01T12:46:47;23.40;;;18.13;;
4389;SDS011;2209;48.982;8.406;2023-03-01T12:49:19;27.47;;;18.83;;
4389;SDS011;2209;48.982;8.406;2023-03-01T12:51:47;30.83;;;18.83;;
4389;SDS011;2209;48.982;8.406;2023-03-01T12:54:15;27.10;;;19.10;;
4389;SDS011;2209;48.982;8.406;2023-03-01T12:56:40;29.60;;;20.47;;
4389;SDS011;2209;48.982;8.406;2023-03-01T12:59:07;28.87;;;18.50;;
4389;SDS011;2209;48.982;8.406;2023-03-01T13:01:40;25.97;;;19.00;;
4389;SDS011;2209;48.982;8.406;2023-03-01T13:04:15;23.60;;;19.10;;
4389;SDS011;2209;48.982;8.406;2023-03-01T13:06:55;31.10;;;19.63;;
4389;SDS011;2209;48.982;8.406;2023-03-01T13:09:28;27.33;;;18.90;;
4389;SDS011;2209;48.982;8.406;2023-03-01T13:11:55;26.30;;;18.80;;
4389;SDS011;2209;48.982;8.406;2023-03-01T13:14:37;25.87;;;19.00;;
4389;SDS011;2209;48.982;8.406;2023-03-01T13:17:20;29.63;;;19.93;;
4389;SDS011;2209;48.982;8.406;2023-03-01T13:19:56;31.17;;;20.47;;
4389;SDS011;2209;48.982;8.406;2023-03-01T13:22:25;27.33;;;20.17;;
4389;SDS011;2209;48.982;8.406;2023-03-01T13:24:50;30.17;;;19.97;;
4389;SDS011;2209;48.982;8.406;2023-03-01T13:27:23;30.60;;;19.57;;
4389;SDS011;2209;48.982;8.406;2023-03-01T13:29:51;32.77;;;19.87;;
4389;SDS011;2209;48.982;8.406;2023-03-01T13:32:21;29.43;;;19.93;;
4389;SDS011;2209;48.982;8.406;2023-03-01T13:34:48;26.80;;;18.43;;
4389;SDS011;2209;48.982;8.406;2023-03-01T13:37:19;24.97;;;18.83;;
4389;SDS011;2209;48.982;8.406;2023-03-01T13:39:43;26.83;;;19.53;;
4389;SDS011;2209;48.982;8.406;2023-03-01T13:42:32;24.83;;;18.10;;
4389;SDS011;2209;48.982;8.406;2023-03-01T13:44:58;35.43;;;20.33;;
4389;SDS011;2209;48.982;8.406;2023-03-01T13:47:21;28.67;;;19.63;;
4389;SDS011;2209;48.982;8.406;2023-03-01T13:49:43;26.00;;;16.93;;
4389;SDS011;2209;48.982;8.406;2023-03-01T13:52:15;24.77;;;19.40;;
4389;SDS011;2209;48.982;8.406;2023-03-01T13:55:00;28.87;;;18.67;;
4389;SDS011;2209;48.982;8.406;2023-03-01T13:57:26;23.53;;;17.30;;
4389;SDS011;2209;48.982;8.406;2023-03-01T13:59:53;26.00;;;17.43;;
4389;SDS011;2209;48.982;8.406;2023-03-01T14:02:17;28.37;;;18.70;;
4389;SDS011;2209;48.982;8.406;2023-03-01T14:04:39;26.30;;;19.37;;
4389;SDS011;2209;48.982;8.406;2023-03-01T14:07:11;21.70;;;16.77;;
4389;SDS011;2209;48.982;8.406;2023-03-01T14:09:34;26.73;;;18.90;;
4389;SDS011;2209;48.982;8.406;2023-03-01T14:12:04;25.80;;;17.73;;
4389;SDS011;2209;48.982;8.406;2023-03-01T14:14:39;25.27;;;16.83;;
4389;SDS011;2209;48.982;8.406;2023-03-01T14:17:13;24.30;;;17.97;;
4389;SDS011;2209;48.982;8.406;2023-03-01T14:20:00;25.20;;;17.30;;
4389;SDS011;2209;48.982;8.406;2023-03-01T14:22:26;22.63;;;17.20;;
4389;SDS011;2209;48.982;8.406;2023-03-01T14:24:51;21.57;;;16.70;;
4389;SDS011;2209;48.982;8.406;2023-03-01T14:27:16;26.33;;;18.10;;
4389;SDS011;2209;48.982;8.406;2023-03-01T14:29:40;22.00;;;17.77;;
4389;SDS011;2209;48.982;8.406;2023-03-01T14:32:12;22.23;;;17.53;;
4389;SDS011;2209;48.982;8.406;2023-03-01T14:34:43;22.60;;;18.03;;
4389;SDS011;2209;48.982;8.406;2023-03-01T14:37:11;26.03;;;17.73;;
4389;SDS011;2209;48.982;8.406;2023-03-01T14:39:40;23.20;;;17.97;;
4389;SDS011;2209;48.982;8.406;2023-03-01T14:42:03;21.40;;;16.90;;
4389;SDS011;2209;48.982;8.406;2023-03-01T14:44:26;24.20;;;19.27;;
4389;SDS011;2209;48.982;8.406;2023-03-01T14:46:51;22.83;;;17.37;;